there are no active watches, warnings or advisories



my webcam  My webcam


visit our other weather sites:

Template documentation
and downloads

And another site




nearby metar reports

   
KAHN - Athens Airport, GA
distance from station: e 35 mi
updated: Sep 24 2021 7:51 am
clear  
clear  
   wind: nne 3.5 mph
wind: nne 3.5 mph
temperature: 51.8°F
dew point: 48.2°F
humidity: 88%
barometer: 30.11 inHg
clouds: Clear
visibility: 10 mi
cloud details: clear ft
KAHN 241151Z 02003KT 10SM CLR 11/09 A3011 RMK AO2 SLP196 T01110089 10128 20100 51019
KBGE - Brainbridge Airport, GA
distance from station: ssw 180 mi
updated: Sep 24 2021 7:15 am
clear  
clear  
   wind: north 4.6 mph
wind: north 4.6 mph
temperature: 55.4°F
dew point: 53.6°F
humidity: 94%
barometer: 30.06 inHg
clouds: Clear
visibility: 10 mi
cloud details: clear ft
KBGE 241115Z AUTO 35004KT 10SM CLR 13/12 A3006 RMK AO2 T01250117
KSSI - Brunswick Airport, GA
distance from station: se 209 mi
updated: Sep 24 2021 7:53 am
clear  
clear  
   wind: north 6.9 mph
wind: north 6.9 mph
temperature: 62.6°F
dew point: 60.8°F
humidity: 94%
barometer: 30.02 inHg
clouds: Clear
visibility: 10 mi
cloud details: clear ft
KSSI 241153Z AUTO 35006KT 10SM CLR 17/16 A3002 RMK AO2 SLP167 T01720156 10189 20167 53015
KCSG - Columbus Airport, GA
distance from station: sw 92 mi
updated: Sep 24 2021 7:51 am
clear  
clear  
   wind: nnw 3.5 mph
wind: nnw 3.5 mph
temperature: 53.6°F
dew point: 50°F
humidity: 88%
barometer: 30.09 inHg
clouds: Clear
visibility: 10 mi
cloud details: clear ft
KCSG 241151Z AUTO 33003KT 10SM CLR 12/10 A3009 RMK AO2 SLP187 T01220100 10150 20106 53015
KGVL - Gainsville Airport, GA
distance from station: n 30 mi
updated: Sep 24 2021 7:53 am
clear  
clear  
   wind: nnw 3.5 mph
wind: nnw 3.5 mph
temperature: 53.6°F
dew point: 46.4°F
humidity: 77%
barometer: 30.13 inHg
clouds: Clear
visibility: 10 mi
cloud details: clear ft
KGVL 241153Z AUTO 34003KT 10SM CLR 12/08 A3013 RMK AO2 SLP198 T01170083 10122 20100 53014
KRMG - Rome Airport, GA
distance from station: nw 60 mi
updated: Sep 24 2021 7:53 am
clear  
clear  
   wind: calm
wind: calm
temperature: 50°F
dew point: 46.4°F
humidity: 88%
barometer: 30.13 inHg
clouds: Clear
visibility: 10 mi
cloud details: clear ft
KRMG 241153Z AUTO 00000KT 10SM CLR 10/08 A3013 RMK AO2 SLP198 T01000078 10117 20094 53015
KSAV - Savannah Airport, GA
distance from station: se 183 mi
updated: Sep 24 2021 7:53 am
few clouds  
few clouds  
   wind: north 5.8 mph
wind: north 5.8 mph
temperature: 59°F
dew point: 57.2°F
humidity: 94%
barometer: 30.06 inHg
clouds: Few Clouds
visibility: 10 mi
cloud details: few clouds 2500 ft
KSAV 241153Z 01005KT 10SM FEW025 15/14 A3006 RMK AO2 SLP177 T01500144 10167 20139 53018
KVLD - Valdosta Airport, GA
distance from station: s 185 mi
updated: Sep 24 2021 7:53 am
clear  
clear  
   wind: north 4.6 mph
wind: north 4.6 mph
temperature: 57.2°F
dew point: 55.4°F
humidity: 94%
barometer: 30.04 inHg
clouds: Clear
visibility: 10 mi
cloud details: clear ft
KVLD 241153Z AUTO 01004KT 10SM CLR 14/13 A3004 RMK AO2 SLP179 T01440133 10144 20133 53013
KWRB - Warner Robins Airport, GA
distance from station: sse 78 mi
updated: Sep 24 2021 7:56 am
clear  
clear  
   wind: nnw 4.6 mph
wind: nnw 4.6 mph
temperature: 51.8°F
dew point: 51.8°F
humidity: 100%
barometer: 30.08 inHg
clouds: Clear
visibility: 10 mi
cloud details: clear ft
KWRB 241156Z 33004KT 10SM CLR 11/11 A3008 RMK AO2A SLP188 52016

script developed by  Saratoga-weather.org adapted for the template by  Weerstation Leuven

equipment we use:

weather-station
Davis VP2 weatherstation

weather-program
WeatherLink

weather-server
My Computer

provider
My provider

Davis VP2 weatherstation

WeatherLink

My Computer

My provider